Time;durP1;ratioP1;P1;durP2;ratioP2;P2;SDS_P1;SDS_P2;PMS_P1;PMS_P2;Temp;Humidity;BMP_temperature;BMP_pressure;BME280_temperature;BME280_humidity;BME280_pressure;Samples;Min_cycle;Max_cycle;Signal;HPM_P1;HPM_P2
2022/11/01 00:01:31;;;;;;;37.85;24.45;;;;;;;12.04;89.57;101187.34;1652145;85;21516;-76
2022/11/01 00:04:16;;;;;;;40.40;26.82;;;;;;;12.04;89.48;101178.72;1646528;85;21101;-76
2022/11/01 00:07:01;;;;;;;66.57;26.07;;;;;;;12.06;89.59;101182.14;1644212;85;21088;-76
2022/11/01 00:09:46;;;;;;;40.38;25.95;;;;;;;12.07;89.61;101182.13;1649773;84;21397;-76
2022/11/01 00:12:31;;;;;;;39.80;25.95;;;;;;;12.09;89.60;101184.70;1648542;85;21052;-76
2022/11/01 00:15:17;;;;;;;50.67;26.62;;;;;;;12.08;89.61;101177.36;1651502;85;21069;-76
2022/11/01 00:18:02;;;;;;;54.23;24.85;;;;;;;12.10;89.61;101179.94;1656907;85;21048;-76
2022/11/01 00:20:46;;;;;;;52.38;25.12;;;;;;;12.08;89.62;101176.06;1647367;84;21120;-77
2022/11/01 00:23:32;;;;;;;45.28;24.35;;;;;;;12.09;89.68;101175.63;1655099;85;22127;-76
2022/11/01 00:26:21;;;;;;;42.85;24.72;;;;;;;12.11;89.66;101177.76;1642453;85;21486;-77
2022/11/01 00:29:06;;;;;;;36.68;24.40;;;;;;;12.13;89.64;101178.59;1660238;84;21063;-76
2022/11/01 00:31:51;;;;;;;41.55;24.45;;;;;;;12.11;89.66;101177.76;1656830;85;21544;-76
2022/11/01 00:34:36;;;;;;;55.28;24.40;;;;;;;12.11;89.71;101186.39;1656158;84;21347;-76
2022/11/01 00:37:22;;;;;;;64.50;25.32;;;;;;;12.12;89.66;101183.36;1661657;85;21068;-76
2022/11/01 00:40:08;;;;;;;65.55;24.23;;;;;;;12.09;89.64;101182.11;1644210;85;21392;-76
2022/11/01 00:42:54;;;;;;;43.35;24.60;;;;;;;12.09;89.74;101171.73;1653849;84;20988;-76
2022/11/01 00:45:41;;;;;;;47.17;23.37;;;;;;;12.09;89.77;101161.37;1653244;85;21549;-76
2022/11/01 00:48:26;;;;;;;;;;;;;;;12.11;89.78;101158.31;1648571;85;21817;-76
2022/11/01 00:51:11;;;;;;;28.55;21.82;;;;;;;12.09;89.83;101149.70;1649420;84;20175;-76
2022/11/01 00:53:56;;;;;;;51.58;24.00;;;;;;;12.07;89.78;101151.45;1659194;85;21580;-77
2022/11/01 00:56:41;;;;;;;41.05;22.98;;;;;;;12.07;89.77;101144.54;1675904;85;21102;-77
2022/11/01 00:59:26;;;;;;;40.30;23.60;;;;;;;12.07;89.81;101141.95;1664657;85;21346;-77
2022/11/01 01:02:11;;;;;;;32.58;21.73;;;;;;;12.08;89.82;101141.07;1663025;85;21050;-77
2022/11/01 01:04:57;;;;;;;32.83;21.02;;;;;;;12.05;89.74;101135.07;1653713;85;21136;-77
2022/11/01 01:07:42;;;;;;;37.23;22.15;;;;;;;12.02;89.77;101133.81;1653372;85;21073;-77
2022/11/01 01:10:27;;;;;;;41.35;21.60;;;;;;;12.02;89.86;101133.81;1645147;84;21060;-77
2022/11/01 01:13:12;;;;;;;35.10;20.82;;;;;;;12.03;89.88;101127.75;1652863;85;21541;-77
2022/11/01 01:15:57;;;;;;;43.65;20.45;;;;;;;12.02;89.84;101126.89;1666137;85;21640;-77
2022/11/01 01:18:42;;;;;;;32.15;20.43;;;;;;;12.02;89.86;101120.86;1654345;85;21060;-77
2022/11/01 01:21:27;;;;;;;50.43;21.20;;;;;;;11.99;89.85;101123.05;1641780;85;21604;-77
2022/11/01 01:24:12;;;;;;;27.98;20.88;;;;;;;12.00;89.90;101119.58;1643162;84;20993;-77
2022/11/01 01:26:58;;;;;;;32.85;19.73;;;;;;;11.99;89.92;101115.71;1649766;85;21096;-77
2022/11/01 01:29:44;;;;;;;43.20;20.27;;;;;;;11.99;89.92;101110.53;1680218;84;21080;-77
2022/11/01 01:32:29;;;;;;;38.42;22.32;;;;;;;11.99;89.90;101111.38;1664005;85;21138;-77
2022/11/01 01:35:14;;;;;;;36.65;21.10;;;;;;;11.98;89.93;101106.22;1652714;85;21056;-77
2022/11/01 01:37:59;;;;;;;35.33;22.50;;;;;;;11.98;89.96;101105.78;1648203;84;21069;-77
2022/11/01 01:40:44;;;;;;;31.15;21.97;;;;;;;11.96;89.90;101107.54;1641461;85;21068;-77
2022/11/01 01:43:44;;;;;;;31.97;23.10;;;;;;;11.95;89.92;101106.30;1660978;85;21043;-77
2022/11/01 01:46:29;;;;;;;32.00;23.05;;;;;;;11.97;89.98;101113.58;1661495;85;21630;-76
2022/11/01 01:49:14;;;;;;;38.15;24.72;;;;;;;11.93;89.93;101111.50;1666023;85;21049;-76
2022/11/01 01:51:59;;;;;;;45.88;24.05;;;;;;;11.92;89.98;101111.08;1644087;84;21064;-76
2022/11/01 01:54:45;;;;;;;36.48;24.70;;;;;;;11.93;90.00;101112.80;1645108;85;20981;-76
2022/11/01 01:57:31;;;;;;;30.50;23.87;;;;;;;11.93;90.08;101118.84;1655920;85;21132;-76
2022/11/01 02:00:17;;;;;;;44.15;23.55;;;;;;;11.97;90.11;101126.54;1643103;85;21052;-76
2022/11/01 02:03:04;;;;;;;36.80;24.32;;;;;;;12.00;90.11;101134.27;1645581;85;21009;-76
2022/11/01 02:06:02;;;;;;;32.65;23.02;;;;;;;12.00;90.12;101135.13;1524742;85;5001408;-76
2022/11/01 02:08:56;;;;;;;35.00;24.12;;;;;;;12.04;90.14;101138.09;1654335;84;21632;-76
2022/11/01 02:11:41;;;;;;;35.73;23.18;;;;;;;12.04;90.09;101135.95;1648474;85;21651;-77
2022/11/01 02:14:26;;;;;;;37.42;22.90;;;;;;;12.04;90.05;101132.92;1651125;85;20993;-77
2022/11/01 02:17:22;;;;;;;39.65;23.18;;;;;;;12.02;90.08;101120.41;1662453;85;21386;-77
2022/11/01 02:20:36;;;;;;;36.48;22.85;;;;;;;12.03;90.12;101121.27;1647722;85;21124;-77
2022/11/01 02:23:58;;;;;;;43.45;23.35;;;;;;;12.04;90.13;101119.95;1638932;85;21443;-77
2022/11/01 02:27:12;;;;;;;33.60;21.52;;;;;;;12.05;90.13;101107.41;1640163;84;21072;-77
2022/11/01 02:30:22;;;;;;;32.25;21.10;;;;;;;12.05;90.09;101092.30;1653098;85;21038;-77
2022/11/01 02:33:24;;;;;;;41.45;21.93;;;;;;;12.04;90.09;101085.41;1634927;85;21065;-77
2022/11/01 02:36:24;;;;;;;39.35;21.20;;;;;;;12.02;90.13;101077.65;1655330;85;21479;-77
2022/11/01 02:39:20;;;;;;;39.42;20.37;;;;;;;12.02;90.09;101070.31;1649687;84;21099;-77
2022/11/01 02:42:10;;;;;;;47.48;20.35;;;;;;;12.00;90.03;101047.01;1657513;85;21680;-77
2022/11/01 02:45:00;;;;;;;29.12;20.45;;;;;;;11.96;89.96;101023.31;1644541;85;21487;-77
2022/11/01 02:47:45;;;;;;;29.45;21.17;;;;;;;11.93;90.06;101091.63;1655561;85;21569;-77
2022/11/01 02:50:45;;;;;;;33.98;21.12;;;;;;;11.95;90.11;101119.25;1641663;85;21025;-76
2022/11/01 02:53:30;;;;;;;33.75;22.17;;;;;;;11.95;90.12;101098.52;1644685;84;21112;-76
2022/11/01 02:56:18;;;;;;;30.40;21.23;;;;;;;11.93;90.13;101125.31;1657974;84;21576;-76
2022/11/01 02:59:03;;;;;;;26.82;20.37;;;;;;;11.94;90.15;101108.03;1628049;86;20997;-76
2022/11/01 03:01:56;;;;;;;29.20;21.70;;;;;;;11.92;90.11;101089.91;1649433;84;21104;-76
2022/11/01 03:04:41;;;;;;;37.03;21.82;;;;;;;11.93;90.17;101106.31;1664168;84;21090;-76
2022/11/01 03:07:26;;;;;;;28.42;21.35;;;;;;;11.93;90.21;101105.02;1643782;84;21113;-76
2022/11/01 03:10:13;;;;;;;29.30;21.50;;;;;;;11.95;90.22;101094.63;1658900;84;21479;-76
2022/11/01 03:13:03;;;;;;;34.78;22.25;;;;;;;11.96;90.23;101095.05;1664003;84;21564;-76
2022/11/01 03:16:09;;;;;;;26.17;20.35;;;;;;;11.98;90.25;101099.74;1661208;84;21435;-77
2022/11/01 03:19:18;;;;;;;;;;;;;;;11.99;90.27;101100.16;1660761;84;21033;-76
2022/11/01 03:22:20;;;;;;;29.77;20.27;;;;;;;11.99;90.24;101100.16;1657234;84;20478;-76
2022/11/01 03:25:41;;;;;;;31.35;21.17;;;;;;;11.95;90.24;101098.09;1659553;84;21572;-77
2022/11/01 03:28:36;;;;;;;30.70;22.02;;;;;;;11.95;90.23;101110.19;1628781;85;21104;-76
2022/11/01 03:31:28;;;;;;;35.43;21.07;;;;;;;11.94;90.26;101109.33;1653792;84;21072;-76
2022/11/01 03:34:17;;;;;;;31.12;22.60;;;;;;;11.95;90.25;101112.78;1642770;85;21750;-76
2022/11/01 03:37:08;;;;;;;33.92;23.77;;;;;;;11.93;90.17;101105.88;1653257;84;21442;-76
2022/11/01 03:39:54;;;;;;;32.33;22.15;;;;;;;11.91;90.18;101095.97;1649994;84;21552;-76
2022/11/01 03:42:43;;;;;;;39.60;22.98;;;;;;;11.90;90.15;101095.99;1651461;84;21075;-76
2022/11/01 03:45:32;;;;;;;40.08;23.32;;;;;;;11.86;90.21;101077.48;1662152;84;21059;-76
2022/11/01 03:48:17;;;;;;;33.65;21.55;;;;;;;11.87;90.21;101064.94;1650646;84;21044;-76
2022/11/01 03:51:02;;;;;;;39.48;21.90;;;;;;;11.84;90.20;101071.02;1667333;84;21632;-76
2022/11/01 03:53:47;;;;;;;35.20;22.22;;;;;;;11.86;90.24;101087.84;1657184;84;21048;-76
2022/11/01 03:56:32;;;;;;;35.52;22.75;;;;;;;11.84;90.27;101089.59;1658938;84;21136;-77
2022/11/01 03:59:17;;;;;;;39.27;22.60;;;;;;;11.80;90.21;101078.41;1662561;84;21055;-77
2022/11/01 04:02:03;;;;;;;32.48;21.10;;;;;;;11.78;90.21;101072.84;1656382;84;21060;-77
2022/11/01 04:04:48;;;;;;;34.00;22.00;;;;;;;11.74;90.24;101069.84;1662647;84;21094;-76
2022/11/01 04:07:33;;;;;;;37.17;23.42;;;;;;;11.73;90.30;101077.19;1639626;85;21048;-76
2022/11/01 04:10:20;;;;;;;32.20;22.82;;;;;;;11.68;90.21;101066.03;1647280;85;21061;-76
2022/11/01 04:13:05;;;;;;;35.33;22.50;;;;;;;11.66;90.32;101066.05;1648322;84;21076;-76
2022/11/01 04:21:57;;;;;;;44.18;25.90;;;;;;;11.65;90.36;101064.34;1650384;85;21112;-76
2022/11/01 04:24:42;;;;;;;42.33;25.52;;;;;;;11.63;90.37;101062.64;1643485;85;21122;-77
2022/11/01 04:27:27;;;;;;;50.48;24.65;;;;;;;11.63;90.35;101066.53;1646381;85;21033;-77
2022/11/01 04:30:13;;;;;;;52.00;24.30;;;;;;;11.63;90.31;101070.41;1654955;84;21081;-76
2022/11/01 04:32:58;;;;;;;42.67;22.87;;;;;;;11.59;90.29;101063.13;1662739;85;21105;-76
2022/11/01 04:35:43;;;;;;;35.63;24.37;;;;;;;11.57;90.33;101063.58;1653823;85;21077;-76
2022/11/01 04:38:28;;;;;;;34.27;24.02;;;;;;;11.56;90.35;101048.48;1653838;85;21544;-76
2022/11/01 04:41:17;;;;;;;32.05;22.30;;;;;;;11.52;90.21;101033.00;1654054;85;21053;-76
2022/11/01 04:44:02;;;;;;;29.15;21.90;;;;;;;11.49;90.31;101021.38;1640679;85;21112;-76
2022/11/01 04:46:47;;;;;;;27.67;19.82;;;;;;;11.47;90.39;101006.30;1639055;85;21061;-76
2022/11/01 04:49:32;;;;;;;26.77;20.12;;;;;;;11.47;90.39;100993.36;1611568;86;21056;-76
2022/11/01 04:52:18;;;;;;;32.25;20.65;;;;;;;11.48;90.40;100978.23;1652752;85;21058;-76
2022/11/01 04:55:03;;;;;;;30.00;19.90;;;;;;;11.47;90.39;100970.05;1644197;85;21032;-76
2022/11/01 04:57:48;;;;;;;33.70;20.60;;;;;;;11.45;90.38;100948.50;1659518;84;21065;-76
2022/11/01 05:00:34;;;;;;;35.35;20.35;;;;;;;11.43;90.39;100934.31;1653971;85;21123;-76
2022/11/01 05:03:19;;;;;;;25.50;19.62;;;;;;;11.43;90.41;100921.80;1649637;85;21068;-76
2022/11/01 05:06:04;;;;;;;37.55;21.75;;;;;;;11.42;90.43;100913.62;1654133;85;20997;-76
2022/11/01 05:08:49;;;;;;;29.87;20.60;;;;;;;11.42;90.46;100912.33;1654843;84;21116;-76
2022/11/01 05:11:34;;;;;;;37.70;20.43;;;;;;;11.42;90.48;100905.84;1652681;85;21072;-76
2022/11/01 05:14:19;;;;;;;37.73;19.95;;;;;;;11.41;90.46;100905.44;1648716;84;21056;-76
2022/11/01 05:17:05;;;;;;;25.65;19.77;;;;;;;11.40;90.47;100918.82;1651735;85;21064;-76
2022/11/01 05:19:50;;;;;;;45.20;21.23;;;;;;;11.39;90.45;100924.02;1645064;85;21069;-76
2022/11/01 05:22:35;;;;;;;35.03;21.37;;;;;;;11.38;90.51;100927.48;1654558;84;21568;-76
2022/11/01 05:25:20;;;;;;;33.78;23.07;;;;;;;11.38;90.56;100943.88;1658293;84;21059;-76
2022/11/01 05:28:10;;;;;;;31.77;21.48;;;;;;;11.42;90.62;100963.67;1657538;83;21064;-77
2022/11/01 05:30:56;;;;;;;34.48;22.45;;;;;;;11.46;90.68;100970.48;1660129;85;21053;-76
2022/11/01 05:33:42;;;;;;;35.48;23.22;;;;;;;11.52;90.68;100976.02;1667427;85;21071;-76
2022/11/01 05:36:27;;;;;;;33.42;23.12;;;;;;;11.53;90.65;100951.84;1652872;84;21092;-76
2022/11/01 05:39:12;;;;;;;32.48;22.22;;;;;;;11.52;90.60;100938.47;1662782;85;21061;-77
2022/11/01 05:41:57;;;;;;;33.05;22.27;;;;;;;11.55;90.66;100928.06;1649945;85;21151;-77
2022/11/01 05:44:42;;;;;;;36.42;24.43;;;;;;;11.57;90.66;100922.42;1649538;84;20990;-77
2022/11/01 05:47:27;;;;;;;41.28;24.65;;;;;;;11.59;90.68;100920.66;1660639;85;21588;-77
2022/11/01 05:50:15;;;;;;;43.92;25.68;;;;;;;11.61;90.69;100925.39;1641943;85;21504;-77
2022/11/01 05:53:06;;;;;;;39.88;26.10;;;;;;;11.63;90.67;100939.17;1655310;85;21065;-77
2022/11/01 05:55:55;;;;;;;42.90;26.10;;;;;;;11.63;90.61;100935.72;1663419;84;21111;-76
2022/11/01 05:58:40;;;;;;;37.88;25.82;;;;;;;11.64;90.72;100948.66;1653395;84;21032;-76
2022/11/01 06:01:25;;;;;;;40.28;25.02;;;;;;;11.67;90.74;100941.27;1655834;84;21055;-76
2022/11/01 06:04:10;;;;;;;33.25;24.35;;;;;;;11.68;90.72;100945.14;1659025;85;21536;-76
2022/11/01 06:06:55;;;;;;;38.80;23.40;;;;;;;11.72;90.79;100953.72;1650132;85;21081;-77
2022/11/01 06:09:40;;;;;;;38.38;24.18;;;;;;;11.74;90.76;100948.93;1651208;85;21068;-77
2022/11/01 06:12:26;;;;;;;38.13;25.15;;;;;;;11.77;90.79;100955.39;1647097;85;21093;-76
2022/11/01 06:15:11;;;;;;;31.37;22.35;;;;;;;11.79;90.80;100965.30;1658219;85;21032;-76
2022/11/01 06:17:58;;;;;;;34.73;23.83;;;;;;;11.82;90.78;100970.43;1650216;84;21004;-77
2022/11/01 06:20:43;;;;;;;30.60;23.18;;;;;;;11.85;90.77;100970.82;1646942;84;21400;-76
2022/11/01 06:23:28;;;;;;;37.78;23.07;;;;;;;11.87;90.79;100970.36;1648108;85;21104;-76
2022/11/01 06:26:13;;;;;;;43.38;24.87;;;;;;;11.85;90.74;100955.28;1654623;85;21032;-77
2022/11/01 06:29:02;;;;;;;35.78;22.98;;;;;;;11.85;90.77;100960.02;1664818;85;21542;-76
2022/11/01 06:31:47;;;;;;;35.43;22.58;;;;;;;11.84;90.76;100959.60;1664247;85;20996;-76
2022/11/01 06:34:33;;;;;;;46.30;25.45;;;;;;;11.84;90.74;100970.41;1659229;85;21108;-76
2022/11/01 06:37:17;;;;;;;35.38;23.85;;;;;;;11.84;90.80;100971.70;1646855;85;412820;-76
2022/11/01 06:40:03;;;;;;;43.65;24.37;;;;;;;11.83;90.78;100969.55;1655135;84;21482;-76
2022/11/01 06:42:48;;;;;;;36.90;25.40;;;;;;;11.81;90.75;100963.53;1656739;85;21499;-77
2022/11/01 06:45:33;;;;;;;35.33;23.40;;;;;;;11.80;90.77;100963.12;1655041;84;21084;-77
2022/11/01 06:48:18;;;;;;;47.50;25.90;;;;;;;11.79;90.81;100961.41;1643052;84;21089;-76
2022/11/01 06:51:04;;;;;;;35.25;25.08;;;;;;;11.79;90.90;100960.11;1659391;85;21068;-77
2022/11/01 06:53:49;;;;;;;42.67;26.07;;;;;;;11.78;90.90;100936.81;1660617;84;303331;-76
2022/11/01 06:56:34;;;;;;;43.02;27.02;;;;;;;11.77;90.92;100945.03;1663684;83;21072;-76
2022/11/01 06:59:19;;;;;;;42.80;27.00;;;;;;;11.80;90.97;100942.39;1645311;84;21235;-76
2022/11/01 07:02:06;;;;;;;46.68;26.70;;;;;;;11.83;90.99;100947.53;1653615;85;21069;-76
2022/11/01 07:04:51;;;;;;;49.18;27.80;;;;;;;11.87;91.05;100940.56;1648778;85;21069;-76
2022/11/01 07:07:36;;;;;;;59.63;31.82;;;;;;;11.89;91.02;100937.50;1647376;85;21550;-76
2022/11/01 07:10:22;;;;;;;58.63;30.08;;;;;;;11.90;90.96;100934.89;1644834;85;21109;-76
2022/11/01 07:13:12;;;;;;;47.35;30.85;;;;;;;11.88;90.92;100937.95;1652594;85;21057;-76
2022/11/01 07:15:57;;;;;;;50.85;31.93;;;;;;;11.90;91.04;100945.69;1652474;84;21085;-76
2022/11/01 07:18:44;;;;;;;59.53;33.63;;;;;;;11.95;91.14;100941.30;1642659;85;21097;-81
2022/11/01 07:21:29;;;;;;;71.12;35.13;;;;;;;12.01;91.22;100939.01;1646669;85;21085;-82
2022/11/01 07:24:15;;;;;;;59.73;35.28;;;;;;;12.06;91.21;100939.34;1638626;85;21148;-77
2022/11/01 07:27:00;;;;;;;67.77;35.80;;;;;;;12.11;91.23;100941.42;1644067;85;21546;-77
2022/11/01 07:29:45;;;;;;;69.20;37.42;;;;;;;12.18;91.46;100937.84;1642124;85;21817;-82
2022/11/01 07:32:30;;;;;;;75.00;37.67;;;;;;;12.24;91.25;100931.26;1644120;85;21028;-78
2022/11/01 07:35:15;;;;;;;63.92;39.03;;;;;;;12.28;91.24;100921.69;1640006;85;21074;-81
2022/11/01 07:38:01;;;;;;;70.75;38.42;;;;;;;12.31;91.27;100925.52;1641549;85;21090;-83
2022/11/01 07:40:48;;;;;;;71.60;38.25;;;;;;;12.40;91.37;100925.80;1648831;85;21529;-83
2022/11/01 07:43:34;;;;;;;;;;;;;;;12.45;91.33;100922.23;1649165;84;21109;-79
2022/11/01 07:46:19;;;;;;;62.88;37.60;;;;;;;12.52;91.48;100922.94;1640329;85;20221;-79
2022/11/01 07:49:04;;;;;;;64.60;38.67;;;;;;;12.56;91.40;100923.30;1648296;84;21059;-79
2022/11/01 07:51:49;;;;;;;66.42;37.53;;;;;;;12.63;91.48;100924.89;1642332;85;21167;-82
2022/11/01 07:54:34;;;;;;;64.60;39.83;;;;;;;12.72;91.48;100926.45;1640006;85;21788;-82
2022/11/01 07:57:19;;;;;;;58.70;36.70;;;;;;;12.79;91.46;100918.52;1643589;85;21125;-83
2022/11/01 08:00:08;;;;;;;57.78;37.15;;;;;;;12.85;91.38;100933.11;1647237;85;21287;-82
2022/11/01 08:03:02;;;;;;;57.95;37.33;;;;;;;12.90;91.35;100939.92;1652198;85;21096;-82
2022/11/01 08:05:47;;;;;;;64.03;37.30;;;;;;;12.93;91.28;100937.27;1654874;85;21148;-82
2022/11/01 08:08:32;;;;;;;48.68;33.80;;;;;;;12.93;91.22;100939.00;1647795;85;21104;-82
2022/11/01 08:11:17;;;;;;;53.70;32.85;;;;;;;12.93;91.22;100937.70;1656474;84;21695;-82
2022/11/01 08:14:02;;;;;;;55.85;34.10;;;;;;;12.92;91.18;100936.84;1670884;85;21603;-82
2022/11/01 08:16:49;;;;;;;55.85;32.40;;;;;;;12.89;91.14;100947.73;1650825;85;21159;-82
2022/11/01 08:19:34;;;;;;;49.33;33.18;;;;;;;12.86;91.15;100951.69;1661700;85;21472;-82
2022/11/01 08:22:19;;;;;;;45.43;32.38;;;;;;;12.85;91.25;100953.43;1660333;85;21117;-82
2022/11/01 08:25:05;;;;;;;50.15;33.25;;;;;;;12.85;91.23;100946.09;1656839;85;21064;-82
2022/11/01 08:27:50;;;;;;;47.35;32.38;;;;;;;12.86;91.37;100948.66;1652322;84;21068;-83
2022/11/01 08:30:37;;;;;;;47.35;31.50;;;;;;;12.91;91.44;100954.61;1662283;85;21071;-82
2022/11/01 08:33:23;;;;;;;51.40;34.78;;;;;;;12.95;91.45;100943.72;1649475;85;21056;-82
2022/11/01 08:36:08;;;;;;;53.80;35.38;;;;;;;12.96;91.35;100929.85;1645686;85;21574;-82
2022/11/01 08:38:53;;;;;;;53.38;34.90;;;;;;;12.99;91.34;100940.62;1648274;85;21147;-82
2022/11/01 08:41:38;;;;;;;55.95;33.92;;;;;;;13.02;91.44;100934.03;1661266;83;21041;-82
2022/11/01 08:44:23;;;;;;;57.33;35.10;;;;;;;13.08;91.45;100926.12;1647102;85;21105;-82
2022/11/01 08:47:09;;;;;;;56.13;34.43;;;;;;;13.12;91.43;100919.53;1654991;85;21535;-82
2022/11/01 08:49:55;;;;;;;53.52;34.67;;;;;;;13.18;91.49;100929.81;1671387;82;21532;-82
2022/11/01 08:52:41;;;;;;;59.15;36.13;;;;;;;13.23;91.37;100929.27;1662587;84;21549;-82
2022/11/01 08:55:26;;;;;;;56.60;36.75;;;;;;;13.26;91.42;100920.56;1654321;84;21132;-82
2022/11/01 08:58:11;;;;;;;64.07;38.98;;;;;;;13.33;91.47;100927.77;1658126;85;21611;-82
2022/11/01 09:00:56;;;;;;;55.85;36.58;;;;;;;13.35;91.36;100924.70;1648972;85;21093;-82
2022/11/01 09:03:41;;;;;;;64.40;39.90;;;;;;;13.36;91.34;100916.88;1649669;85;21549;-82
2022/11/01 09:06:28;;;;;;;64.50;39.33;;;;;;;13.40;91.47;100922.86;1645314;85;21489;-82
2022/11/01 09:09:13;;;;;;;64.05;40.28;;;;;;;13.48;91.50;100920.94;1644753;85;21112;-82
2022/11/01 09:11:58;;;;;;;66.60;40.63;;;;;;;13.48;91.30;100919.64;1640011;85;21088;-82
2022/11/01 09:14:42;;;;;;;61.73;39.08;;;;;;;13.50;91.35;100913.96;1646851;84;21580;-82
2022/11/01 09:17:28;;;;;;;61.85;39.25;;;;;;;13.53;91.41;100909.96;1645265;85;21067;-82
2022/11/01 09:20:14;;;;;;;61.75;41.15;;;;;;;13.59;91.52;100905.48;1652680;85;21481;-82
2022/11/01 09:22:58;;;;;;;64.85;41.00;;;;;;;13.64;91.46;100911.02;1648614;85;21524;-82
2022/11/01 09:25:44;;;;;;;63.63;39.13;;;;;;;13.69;91.50;100918.25;1644079;84;21212;-82
2022/11/01 09:28:31;;;;;;;56.65;38.48;;;;;;;13.72;91.43;100930.73;1524345;84;5001629;-82
2022/11/01 09:31:16;;;;;;;60.63;38.33;;;;;;;13.74;91.35;100928.95;1638795;85;21065;-82
2022/11/01 09:34:01;;;;;;;53.65;37.05;;;;;;;13.78;91.44;100927.98;1640990;85;20997;-82
2022/11/01 09:36:46;;;;;;;56.45;37.80;;;;;;;13.84;91.39;100923.94;1642850;85;21097;-82
2022/11/01 09:39:31;;;;;;;54.10;36.85;;;;;;;13.89;91.46;100925.13;1645312;85;21073;-82
2022/11/01 09:42:40;;;;;;;58.38;36.55;;;;;;;13.96;91.50;100938.83;1655581;85;21087;-82
2022/11/01 09:45:28;;;;;;;47.48;33.55;;;;;;;14.02;91.48;100939.53;1644207;85;21574;-82
2022/11/01 09:48:15;;;;;;;53.58;36.95;;;;;;;14.08;91.42;100930.25;1649710;85;21093;-82
2022/11/01 09:51:06;;;;;;;;;;;;;;;14.09;91.32;100944.95;1648037;85;21061;-82
2022/11/01 09:53:56;;;;;;;50.08;33.90;;;;;;;14.08;91.22;100942.39;1643853;85;20213;-82
2022/11/01 09:57:03;;;;;;;55.33;36.88;;;;;;;14.06;91.28;100943.73;1643576;85;21495;-82
2022/11/01 10:00:05;;;;;;;48.25;33.92;;;;;;;14.06;91.26;100943.73;1638870;85;21573;-82
2022/11/01 10:03:04;;;;;;;52.98;36.95;;;;;;;14.06;91.27;100950.23;1643994;85;21116;-82
2022/11/01 10:05:55;;;;;;;52.25;35.25;;;;;;;14.06;91.26;100938.98;1638625;85;21087;-82
2022/11/01 10:09:03;;;;;;;52.95;34.83;;;;;;;14.07;91.30;100938.94;1640850;85;21155;-82
2022/11/01 10:12:08;;;;;;;52.67;35.55;;;;;;;14.07;91.26;100937.64;1642261;84;21111;-82
2022/11/01 10:15:26;;;;;;;56.37;35.63;;;;;;;14.10;91.28;100944.52;1642165;84;21075;-82
2022/11/01 10:18:32;;;;;;;53.15;35.17;;;;;;;14.07;91.18;100949.34;1642201;84;21737;-82
2022/11/01 10:21:20;;;;;;;51.45;34.85;;;;;;;14.04;91.13;100954.62;1644992;84;21269;-82
2022/11/01 10:24:07;;;;;;;51.15;35.08;;;;;;;14.02;91.12;100951.68;1648267;84;21659;-82
2022/11/01 10:27:13;;;;;;;53.70;35.65;;;;;;;14.02;91.15;100947.78;1644328;84;21367;-83
2022/11/01 10:30:14;;;;;;;53.95;34.45;;;;;;;14.01;91.08;100957.77;1641201;84;21445;-82
2022/11/01 10:33:21;;;;;;;52.48;36.25;;;;;;;13.99;91.11;100946.55;1643254;84;21072;-82
2022/11/01 10:36:21;;;;;;;54.45;37.30;;;;;;;13.98;91.10;100953.50;1643103;84;21568;-82
2022/11/01 10:39:38;;;;;;;57.33;35.60;;;;;;;13.99;91.12;100947.86;1646962;84;21075;-82
2022/11/01 10:42:23;;;;;;;53.25;35.03;;;;;;;13.96;91.05;100940.12;1642258;84;21115;-83
2022/11/01 10:45:18;;;;;;;59.15;36.23;;;;;;;13.93;91.00;100935.00;1632912;84;21067;-79
2022/11/01 10:48:04;;;;;;;54.83;37.83;;;;;;;13.87;90.90;100922.56;1641601;84;22297;-80
2022/11/01 10:50:50;;;;;;;63.97;39.33;;;;;;;13.85;90.97;100926.95;1582962;88;21590;-80
2022/11/01 10:53:40;;;;;;;56.05;35.75;;;;;;;13.85;91.04;100927.39;1653907;84;21106;-80
2022/11/01 10:56:34;;;;;;;54.08;36.35;;;;;;;13.87;91.06;100920.41;1654717;84;21120;-82
2022/11/01 10:59:40;;;;;;;57.88;36.80;;;;;;;13.87;91.04;100916.52;1648336;84;21142;-80
2022/11/01 11:02:36;;;;;;;62.53;39.23;;;;;;;13.87;91.03;100923.86;1633585;84;21113;-80
2022/11/01 11:05:23;;;;;;;60.10;37.63;;;;;;;13.88;91.05;100941.17;1651480;84;21125;-80
2022/11/01 11:08:13;;;;;;;61.23;39.27;;;;;;;13.89;91.00;100961.08;1652185;84;21080;-80
2022/11/01 11:11:06;;;;;;;65.67;39.03;;;;;;;13.90;90.94;100958.88;1654759;85;21695;-80
2022/11/01 11:13:54;;;;;;;62.45;37.28;;;;;;;13.87;90.91;100952.45;1657624;84;21482;-80
2022/11/01 11:16:50;;;;;;;63.50;39.33;;;;;;;13.83;90.82;100959.06;1657786;84;21092;-80
2022/11/01 11:19:38;;;;;;;;;;;;;;;13.79;90.81;100956.98;1653595;84;21121;-81
2022/11/01 11:22:23;;;;;;;63.40;38.95;;;;;;;13.76;90.80;100953.60;1652780;84;20224;-80
2022/11/01 11:25:20;;;;;;;70.20;41.02;;;;;;;13.73;90.84;100950.63;1651169;84;21033;-80
2022/11/01 11:28:05;;;;;;;67.30;40.58;;;;;;;13.73;90.85;100949.33;1647910;84;21113;-80
2022/11/01 11:30:54;;;;;;;71.90;43.03;;;;;;;13.73;90.90;100955.83;1657179;84;21068;-84
2022/11/01 11:33:43;;;;;;;68.90;41.48;;;;;;;13.73;90.83;100954.97;1654351;85;21028;-81
2022/11/01 11:36:35;;;;;;;63.33;39.33;;;;;;;13.70;90.83;100953.30;1664506;84;21636;-80
2022/11/01 11:39:36;;;;;;;64.50;42.13;;;;;;;13.70;90.79;100955.91;1651056;85;21679;-79
2022/11/01 11:42:25;;;;;;;69.70;42.13;;;;;;;13.68;90.78;100952.92;1645638;84;21638;-79
2022/11/01 11:45:24;;;;;;;72.65;44.30;;;;;;;13.67;90.77;100956.41;1648101;85;21072;-79
2022/11/01 11:48:22;;;;;;;65.80;41.30;;;;;;;13.66;90.82;100956.86;1651322;85;21581;-80
2022/11/01 11:51:07;;;;;;;67.78;42.60;;;;;;;13.66;90.81;100946.47;1647281;84;21065;-80
2022/11/01 11:54:10;;;;;;;72.10;44.83;;;;;;;13.67;90.81;100932.58;1655614;84;21080;-81
2022/11/01 11:57:20;;;;;;;73.85;45.52;;;;;;;13.69;90.84;100939.05;1648159;85;21129;-81
2022/11/01 12:00:06;;;;;;;76.72;45.40;;;;;;;13.70;90.82;100936.41;1659551;85;21048;-81
2022/11/01 12:02:51;;;;;;;71.85;46.40;;;;;;;13.72;90.80;100938.97;1635951;85;21116;-80
2022/11/01 12:05:37;;;;;;;73.45;45.70;;;;;;;13.75;90.82;100932.41;1631022;86;37368;-80
2022/11/01 12:08:50;;;;;;;73.52;46.53;;;;;;;13.78;90.88;100937.08;1629293;85;21130;-80
2022/11/01 12:11:43;;;;;;;74.03;46.80;;;;;;;13.82;90.81;100933.97;1644030;85;21120;-80
2022/11/01 12:14:33;;;;;;;82.80;48.30;;;;;;;13.84;90.78;100932.19;1650091;85;21021;-80
2022/11/01 12:17:34;;;;;;;79.72;48.73;;;;;;;13.84;90.72;100938.23;1636410;85;21302;-80
2022/11/01 12:20:23;;;;;;;77.00;49.40;;;;;;;13.84;90.74;100944.73;1644390;84;21061;-80
2022/11/01 12:23:25;;;;;;;83.05;51.80;;;;;;;13.86;90.71;100943.40;1652652;85;21199;-80
2022/11/01 12:26:14;;;;;;;82.00;51.15;;;;;;;13.84;90.66;100943.44;1650304;84;21105;-80
2022/11/01 12:29:11;;;;;;;80.77;51.75;;;;;;;13.83;90.66;100939.58;1646952;85;21097;-80
2022/11/01 12:32:01;;;;;;;84.07;51.60;;;;;;;13.83;90.67;100941.73;1645927;85;21153;-79
2022/11/01 12:34:50;;;;;;;80.53;50.43;;;;;;;13.86;90.70;100932.55;1642753;85;21124;-82
2022/11/01 12:37:54;;;;;;;79.53;49.93;;;;;;;13.93;90.74;100931.11;1643107;85;21378;-80
2022/11/01 12:44:45;;;;;;;77.90;48.92;;;;;;;13.95;90.58;100909.38;1640312;85;21112;-81
2022/11/01 12:47:41;;;;;;;77.27;48.02;;;;;;;13.92;90.42;100900.36;1640916;85;21086;-81
2022/11/01 12:50:48;;;;;;;74.30;46.48;;;;;;;13.89;90.52;100897.38;1641537;85;21549;-81
2022/11/01 12:53:44;;;;;;;73.22;47.20;;;;;;;13.89;90.52;100890.88;1640593;85;21253;-81
2022/11/01 12:56:29;;;;;;;;;;;;;;;13.92;90.55;100896.45;1637892;85;21104;-81
2022/11/01 12:59:19;;;;;;;65.10;42.62;;;;;;;13.93;90.40;100909.86;1639305;85;20630;-81
2022/11/01 13:02:24;;;;;;;79.05;44.90;;;;;;;13.95;90.49;100906.78;1648985;84;21141;-81